sensor_id;sensor_type;location;lat;lon;timestamp;temperature;humidity
14119;DHT22;7138;49.246;9.100;2023-09-18T00:00:09;20.00;99.90
14119;DHT22;7138;49.246;9.100;2023-09-18T00:02:38;20.10;99.90
14119;DHT22;7138;49.246;9.100;2023-09-18T00:05:04;20.10;99.90
14119;DHT22;7138;49.246;9.100;2023-09-18T00:07:31;20.00;99.90
14119;DHT22;7138;49.246;9.100;2023-09-18T00:09:57;19.90;99.90
14119;DHT22;7138;49.246;9.100;2023-09-18T00:12:23;19.80;99.90
14119;DHT22;7138;49.246;9.100;2023-09-18T00:14:49;19.70;99.90
14119;DHT22;7138;49.246;9.100;2023-09-18T00:17:15;19.60;99.90
14119;DHT22;7138;49.246;9.100;2023-09-18T00:19:42;19.60;99.90
14119;DHT22;7138;49.246;9.100;2023-09-18T00:22:08;19.60;99.90
14119;DHT22;7138;49.246;9.100;2023-09-18T00:24:35;19.60;99.90
14119;DHT22;7138;49.246;9.100;2023-09-18T00:27:01;19.60;99.90
14119;DHT22;7138;49.246;9.100;2023-09-18T00:29:27;19.50;99.90
14119;DHT22;7138;49.246;9.100;2023-09-18T00:31:52;19.50;99.90
14119;DHT22;7138;49.246;9.100;2023-09-18T00:34:18;19.50;99.90
14119;DHT22;7138;49.246;9.100;2023-09-18T00:36:44;19.70;99.90
14119;DHT22;7138;49.246;9.100;2023-09-18T00:39:10;19.70;99.90
14119;DHT22;7138;49.246;9.100;2023-09-18T00:41:37;19.70;99.90
14119;DHT22;7138;49.246;9.100;2023-09-18T00:44:04;19.70;99.90
14119;DHT22;7138;49.246;9.100;2023-09-18T00:46:31;19.60;99.90
14119;DHT22;7138;49.246;9.100;2023-09-18T00:48:58;19.70;99.90
14119;DHT22;7138;49.246;9.100;2023-09-18T00:51:24;19.70;99.90
14119;DHT22;7138;49.246;9.100;2023-09-18T00:53:50;19.70;99.90
14119;DHT22;7138;49.246;9.100;2023-09-18T00:56:18;19.60;99.90
14119;DHT22;7138;49.246;9.100;2023-09-18T00:58:47;19.60;99.90
14119;DHT22;7138;49.246;9.100;2023-09-18T01:01:15;19.60;99.90
14119;DHT22;7138;49.246;9.100;2023-09-18T01:03:48;19.60;99.90
14119;DHT22;7138;49.246;9.100;2023-09-18T01:06:15;19.60;99.90
14119;DHT22;7138;49.246;9.100;2023-09-18T01:08:41;19.60;99.90
14119;DHT22;7138;49.246;9.100;2023-09-18T01:11:23;19.50;99.90
14119;DHT22;7138;49.246;9.100;2023-09-18T01:14:13;19.50;99.90
14119;DHT22;7138;49.246;9.100;2023-09-18T01:16:49;19.40;99.90
14119;DHT22;7138;49.246;9.100;2023-09-18T01:19:35;19.40;99.90
14119;DHT22;7138;49.246;9.100;2023-09-18T01:22:05;19.30;99.90
14119;DHT22;7138;49.246;9.100;2023-09-18T01:24:33;19.40;99.90
14119;DHT22;7138;49.246;9.100;2023-09-18T01:27:00;19.40;99.90
14119;DHT22;7138;49.246;9.100;2023-09-18T01:29:26;19.30;99.90
14119;DHT22;7138;49.246;9.100;2023-09-18T01:31:52;19.40;99.90
14119;DHT22;7138;49.246;9.100;2023-09-18T01:34:19;19.40;99.90
14119;DHT22;7138;49.246;9.100;2023-09-18T01:36:47;19.40;99.90
14119;DHT22;7138;49.246;9.100;2023-09-18T01:39:16;19.50;99.90
14119;DHT22;7138;49.246;9.100;2023-09-18T01:41:45;19.50;99.90
14119;DHT22;7138;49.246;9.100;2023-09-18T01:44:11;19.60;99.90
14119;DHT22;7138;49.246;9.100;2023-09-18T01:46:38;19.70;99.90
14119;DHT22;7138;49.246;9.100;2023-09-18T01:49:05;19.70;99.90
14119;DHT22;7138;49.246;9.100;2023-09-18T01:51:31;19.70;99.90
14119;DHT22;7138;49.246;9.100;2023-09-18T01:53:57;19.70;99.90
14119;DHT22;7138;49.246;9.100;2023-09-18T01:56:23;19.70;99.90
14119;DHT22;7138;49.246;9.100;2023-09-18T01:58:51;19.60;99.90
14119;DHT22;7138;49.246;9.100;2023-09-18T02:01:16;19.30;99.90
14119;DHT22;7138;49.246;9.100;2023-09-18T02:03:42;19.30;99.90
14119;DHT22;7138;49.246;9.100;2023-09-18T02:06:08;19.00;99.90
14119;DHT22;7138;49.246;9.100;2023-09-18T02:08:34;18.90;99.90
14119;DHT22;7138;49.246;9.100;2023-09-18T02:11:00;18.90;99.90
14119;DHT22;7138;49.246;9.100;2023-09-18T02:13:28;18.80;99.90
14119;DHT22;7138;49.246;9.100;2023-09-18T02:15:55;18.70;99.90
14119;DHT22;7138;49.246;9.100;2023-09-18T02:18:21;18.60;99.90
14119;DHT22;7138;49.246;9.100;2023-09-18T02:20:47;18.60;99.90
14119;DHT22;7138;49.246;9.100;2023-09-18T02:23:14;18.50;99.90
14119;DHT22;7138;49.246;9.100;2023-09-18T02:25:40;18.50;99.90
14119;DHT22;7138;49.246;9.100;2023-09-18T02:28:07;18.40;99.90
14119;DHT22;7138;49.246;9.100;2023-09-18T02:30:32;18.50;99.90
14119;DHT22;7138;49.246;9.100;2023-09-18T02:33:00;18.30;99.90
14119;DHT22;7138;49.246;9.100;2023-09-18T02:35:28;18.30;99.90
14119;DHT22;7138;49.246;9.100;2023-09-18T02:37:54;18.30;99.90
14119;DHT22;7138;49.246;9.100;2023-09-18T02:40:20;18.30;99.90
14119;DHT22;7138;49.246;9.100;2023-09-18T02:42:46;18.40;99.90
14119;DHT22;7138;49.246;9.100;2023-09-18T02:45:11;18.30;99.90
14119;DHT22;7138;49.246;9.100;2023-09-18T02:47:37;18.20;99.90
14119;DHT22;7138;49.246;9.100;2023-09-18T02:50:08;18.20;99.90
14119;DHT22;7138;49.246;9.100;2023-09-18T02:52:36;18.10;99.90
14119;DHT22;7138;49.246;9.100;2023-09-18T02:55:02;18.10;99.90
14119;DHT22;7138;49.246;9.100;2023-09-18T02:57:28;18.20;99.90
14119;DHT22;7138;49.246;9.100;2023-09-18T02:59:54;18.20;99.90
14119;DHT22;7138;49.246;9.100;2023-09-18T03:02:20;18.30;99.90
14119;DHT22;7138;49.246;9.100;2023-09-18T03:04:46;18.20;99.90
14119;DHT22;7138;49.246;9.100;2023-09-18T03:07:14;18.00;99.90
14119;DHT22;7138;49.246;9.100;2023-09-18T03:09:39;18.00;99.90
14119;DHT22;7138;49.246;9.100;2023-09-18T03:12:05;18.00;99.90
14119;DHT22;7138;49.246;9.100;2023-09-18T03:14:31;18.00;99.90
14119;DHT22;7138;49.246;9.100;2023-09-18T03:16:57;18.00;99.90
14119;DHT22;7138;49.246;9.100;2023-09-18T03:19:23;18.00;99.90
14119;DHT22;7138;49.246;9.100;2023-09-18T03:21:50;17.80;99.90
14119;DHT22;7138;49.246;9.100;2023-09-18T03:24:17;17.80;99.90
14119;DHT22;7138;49.246;9.100;2023-09-18T03:26:43;17.80;99.90
14119;DHT22;7138;49.246;9.100;2023-09-18T03:29:09;17.80;99.90
14119;DHT22;7138;49.246;9.100;2023-09-18T03:31:34;17.80;99.90
14119;DHT22;7138;49.246;9.100;2023-09-18T03:34:00;17.80;99.90
14119;DHT22;7138;49.246;9.100;2023-09-18T03:36:26;17.80;99.90
14119;DHT22;7138;49.246;9.100;2023-09-18T03:38:52;17.90;99.90
14119;DHT22;7138;49.246;9.100;2023-09-18T03:41:19;17.80;99.90
14119;DHT22;7138;49.246;9.100;2023-09-18T03:43:45;17.90;99.90
14119;DHT22;7138;49.246;9.100;2023-09-18T03:46:11;17.90;99.90
14119;DHT22;7138;49.246;9.100;2023-09-18T03:48:37;18.00;99.90
14119;DHT22;7138;49.246;9.100;2023-09-18T03:51:03;18.00;99.90
14119;DHT22;7138;49.246;9.100;2023-09-18T03:53:29;18.00;99.90
14119;DHT22;7138;49.246;9.100;2023-09-18T03:55:55;18.00;99.90
14119;DHT22;7138;49.246;9.100;2023-09-18T03:58:22;17.90;99.90
14119;DHT22;7138;49.246;9.100;2023-09-18T04:00:48;17.90;99.90
14119;DHT22;7138;49.246;9.100;2023-09-18T04:03:14;17.90;99.90
14119;DHT22;7138;49.246;9.100;2023-09-18T04:05:40;17.90;99.90
14119;DHT22;7138;49.246;9.100;2023-09-18T04:08:06;18.00;99.90
14119;DHT22;7138;49.246;9.100;2023-09-18T04:10:32;18.00;99.90
14119;DHT22;7138;49.246;9.100;2023-09-18T04:12:58;18.00;99.90
14119;DHT22;7138;49.246;9.100;2023-09-18T04:15:25;18.00;99.90
14119;DHT22;7138;49.246;9.100;2023-09-18T04:17:53;17.90;99.90
14119;DHT22;7138;49.246;9.100;2023-09-18T04:20:19;18.00;99.90
14119;DHT22;7138;49.246;9.100;2023-09-18T04:22:46;18.00;99.90
14119;DHT22;7138;49.246;9.100;2023-09-18T04:25:16;18.00;99.90
14119;DHT22;7138;49.246;9.100;2023-09-18T04:27:42;18.10;99.90
14119;DHT22;7138;49.246;9.100;2023-09-18T04:30:08;18.20;99.90
14119;DHT22;7138;49.246;9.100;2023-09-18T04:32:36;18.30;99.90
14119;DHT22;7138;49.246;9.100;2023-09-18T04:35:03;18.40;99.90
14119;DHT22;7138;49.246;9.100;2023-09-18T04:37:30;18.40;99.90
14119;DHT22;7138;49.246;9.100;2023-09-18T04:39:57;18.50;99.90
14119;DHT22;7138;49.246;9.100;2023-09-18T04:42:23;18.50;99.90
14119;DHT22;7138;49.246;9.100;2023-09-18T04:44:49;18.40;99.90
14119;DHT22;7138;49.246;9.100;2023-09-18T04:47:15;18.40;99.90
14119;DHT22;7138;49.246;9.100;2023-09-18T04:49:42;18.40;99.90
14119;DHT22;7138;49.246;9.100;2023-09-18T04:52:10;18.30;99.90
14119;DHT22;7138;49.246;9.100;2023-09-18T04:54:36;18.30;99.90
14119;DHT22;7138;49.246;9.100;2023-09-18T04:57:02;18.20;99.90
14119;DHT22;7138;49.246;9.100;2023-09-18T04:59:29;18.20;99.90
14119;DHT22;7138;49.246;9.100;2023-09-18T05:01:55;18.20;99.90
14119;DHT22;7138;49.246;9.100;2023-09-18T05:04:21;18.20;99.90
14119;DHT22;7138;49.246;9.100;2023-09-18T05:06:48;18.10;99.90
14119;DHT22;7138;49.246;9.100;2023-09-18T05:09:14;18.20;99.90
14119;DHT22;7138;49.246;9.100;2023-09-18T05:11:40;18.20;99.90
14119;DHT22;7138;49.246;9.100;2023-09-18T05:14:07;18.10;99.90
14119;DHT22;7138;49.246;9.100;2023-09-18T05:16:33;18.10;99.90
14119;DHT22;7138;49.246;9.100;2023-09-18T05:18:59;18.10;99.90
14119;DHT22;7138;49.246;9.100;2023-09-18T05:21:25;18.10;99.90
14119;DHT22;7138;49.246;9.100;2023-09-18T05:23:53;18.10;99.90
14119;DHT22;7138;49.246;9.100;2023-09-18T05:26:19;18.10;99.90
14119;DHT22;7138;49.246;9.100;2023-09-18T05:28:45;18.00;99.90
14119;DHT22;7138;49.246;9.100;2023-09-18T05:31:12;18.10;99.90
14119;DHT22;7138;49.246;9.100;2023-09-18T05:33:38;18.10;99.90
14119;DHT22;7138;49.246;9.100;2023-09-18T05:36:04;18.10;99.90
14119;DHT22;7138;49.246;9.100;2023-09-18T05:38:30;18.10;99.90
14119;DHT22;7138;49.246;9.100;2023-09-18T05:40:57;18.10;99.90
14119;DHT22;7138;49.246;9.100;2023-09-18T05:43:23;18.10;99.90
14119;DHT22;7138;49.246;9.100;2023-09-18T05:45:49;18.10;99.90
14119;DHT22;7138;49.246;9.100;2023-09-18T05:48:15;18.10;99.90
14119;DHT22;7138;49.246;9.100;2023-09-18T05:50:41;18.10;99.90
14119;DHT22;7138;49.246;9.100;2023-09-18T05:53:07;18.10;99.90
14119;DHT22;7138;49.246;9.100;2023-09-18T05:55:34;18.10;99.90
14119;DHT22;7138;49.246;9.100;2023-09-18T05:58:02;18.10;99.90
14119;DHT22;7138;49.246;9.100;2023-09-18T06:00:30;18.20;99.90
14119;DHT22;7138;49.246;9.100;2023-09-18T06:02:59;18.20;99.90
14119;DHT22;7138;49.246;9.100;2023-09-18T06:05:25;18.20;99.90
14119;DHT22;7138;49.246;9.100;2023-09-18T06:07:51;18.20;99.90
14119;DHT22;7138;49.246;9.100;2023-09-18T06:10:17;18.30;99.90
14119;DHT22;7138;49.246;9.100;2023-09-18T06:12:44;18.30;99.90
14119;DHT22;7138;49.246;9.100;2023-09-18T06:15:12;18.40;99.90
14119;DHT22;7138;49.246;9.100;2023-09-18T06:17:38;18.40;99.90
14119;DHT22;7138;49.246;9.100;2023-09-18T06:20:06;18.50;99.90
14119;DHT22;7138;49.246;9.100;2023-09-18T06:22:36;18.60;99.90
14119;DHT22;7138;49.246;9.100;2023-09-18T06:25:03;18.70;99.90
14119;DHT22;7138;49.246;9.100;2023-09-18T06:27:30;18.80;99.90
14119;DHT22;7138;49.246;9.100;2023-09-18T06:29:58;18.90;99.90
14119;DHT22;7138;49.246;9.100;2023-09-18T06:32:25;18.90;99.90
14119;DHT22;7138;49.246;9.100;2023-09-18T06:34:51;18.90;99.90
14119;DHT22;7138;49.246;9.100;2023-09-18T06:37:17;18.90;99.90
14119;DHT22;7138;49.246;9.100;2023-09-18T06:39:44;18.90;99.90
14119;DHT22;7138;49.246;9.100;2023-09-18T06:42:09;18.80;99.90
14119;DHT22;7138;49.246;9.100;2023-09-18T06:44:35;18.90;99.90
14119;DHT22;7138;49.246;9.100;2023-09-18T06:47:01;18.80;99.90
14119;DHT22;7138;49.246;9.100;2023-09-18T06:49:28;18.90;99.90
14119;DHT22;7138;49.246;9.100;2023-09-18T06:51:56;18.90;99.90
14119;DHT22;7138;49.246;9.100;2023-09-18T06:54:22;18.90;99.90
14119;DHT22;7138;49.246;9.100;2023-09-18T06:56:48;18.90;99.90
14119;DHT22;7138;49.246;9.100;2023-09-18T06:59:13;18.90;99.90
14119;DHT22;7138;49.246;9.100;2023-09-18T07:01:39;18.80;99.90
14119;DHT22;7138;49.246;9.100;2023-09-18T07:04:06;18.90;99.90
14119;DHT22;7138;49.246;9.100;2023-09-18T07:06:33;18.90;99.90
14119;DHT22;7138;49.246;9.100;2023-09-18T07:08:59;18.90;99.90
14119;DHT22;7138;49.246;9.100;2023-09-18T07:11:26;18.90;99.90
14119;DHT22;7138;49.246;9.100;2023-09-18T07:13:52;19.00;99.90
14119;DHT22;7138;49.246;9.100;2023-09-18T07:16:17;19.00;99.90
14119;DHT22;7138;49.246;9.100;2023-09-18T07:18:43;19.00;99.90
14119;DHT22;7138;49.246;9.100;2023-09-18T07:21:09;19.00;99.90
14119;DHT22;7138;49.246;9.100;2023-09-18T07:23:37;19.00;99.90
14119;DHT22;7138;49.246;9.100;2023-09-18T07:26:05;19.00;99.90
14119;DHT22;7138;49.246;9.100;2023-09-18T07:28:31;19.00;99.90
14119;DHT22;7138;49.246;9.100;2023-09-18T07:31:04;19.00;99.90
14119;DHT22;7138;49.246;9.100;2023-09-18T07:33:31;19.00;99.90
14119;DHT22;7138;49.246;9.100;2023-09-18T07:35:56;19.00;99.90
14119;DHT22;7138;49.246;9.100;2023-09-18T07:38:23;19.10;99.90
14119;DHT22;7138;49.246;9.100;2023-09-18T07:40:51;19.10;99.90
14119;DHT22;7138;49.246;9.100;2023-09-18T07:43:17;19.10;99.90
14119;DHT22;7138;49.246;9.100;2023-09-18T07:45:43;19.10;99.90
14119;DHT22;7138;49.246;9.100;2023-09-18T07:48:09;19.10;99.90
14119;DHT22;7138;49.246;9.100;2023-09-18T07:50:35;19.10;99.90
14119;DHT22;7138;49.246;9.100;2023-09-18T07:53:01;19.10;99.90
14119;DHT22;7138;49.246;9.100;2023-09-18T07:55:27;19.10;99.90
14119;DHT22;7138;49.246;9.100;2023-09-18T07:57:54;19.20;99.90
14119;DHT22;7138;49.246;9.100;2023-09-18T08:00:20;19.20;99.90
14119;DHT22;7138;49.246;9.100;2023-09-18T08:02:48;19.10;99.90
14119;DHT22;7138;49.246;9.100;2023-09-18T08:05:15;19.10;99.90
14119;DHT22;7138;49.246;9.100;2023-09-18T08:07:41;19.10;99.90
14119;DHT22;7138;49.246;9.100;2023-09-18T08:10:08;19.10;99.90
14119;DHT22;7138;49.246;9.100;2023-09-18T08:12:35;19.00;99.90
14119;DHT22;7138;49.246;9.100;2023-09-18T08:15:03;19.00;99.90
14119;DHT22;7138;49.246;9.100;2023-09-18T08:17:30;19.00;99.90
14119;DHT22;7138;49.246;9.100;2023-09-18T08:19:56;19.00;99.90
14119;DHT22;7138;49.246;9.100;2023-09-18T08:22:24;19.00;99.90
14119;DHT22;7138;49.246;9.100;2023-09-18T08:24:50;19.00;99.90
14119;DHT22;7138;49.246;9.100;2023-09-18T08:27:19;19.00;99.90
14119;DHT22;7138;49.246;9.100;2023-09-18T08:29:45;18.90;99.90
14119;DHT22;7138;49.246;9.100;2023-09-18T08:32:13;18.90;99.90
14119;DHT22;7138;49.246;9.100;2023-09-18T08:34:39;19.00;99.90
14119;DHT22;7138;49.246;9.100;2023-09-18T08:37:05;19.10;99.90
14119;DHT22;7138;49.246;9.100;2023-09-18T08:39:31;19.20;99.90
14119;DHT22;7138;49.246;9.100;2023-09-18T08:41:59;19.20;99.90
14119;DHT22;7138;49.246;9.100;2023-09-18T08:44:29;19.20;99.90
14119;DHT22;7138;49.246;9.100;2023-09-18T08:46:56;19.20;99.90
14119;DHT22;7138;49.246;9.100;2023-09-18T08:49:25;19.20;99.90
14119;DHT22;7138;49.246;9.100;2023-09-18T08:51:55;19.30;99.90
14119;DHT22;7138;49.246;9.100;2023-09-18T08:54:21;19.30;99.90
14119;DHT22;7138;49.246;9.100;2023-09-18T08:56:49;19.40;99.90
14119;DHT22;7138;49.246;9.100;2023-09-18T08:59:16;19.30;99.90
14119;DHT22;7138;49.246;9.100;2023-09-18T09:01:42;19.30;99.90
14119;DHT22;7138;49.246;9.100;2023-09-18T09:04:08;19.30;99.90
14119;DHT22;7138;49.246;9.100;2023-09-18T09:06:35;19.30;99.90
14119;DHT22;7138;49.246;9.100;2023-09-18T09:09:02;19.30;99.90
14119;DHT22;7138;49.246;9.100;2023-09-18T09:11:28;19.30;99.90
14119;DHT22;7138;49.246;9.100;2023-09-18T09:14:09;19.30;99.90
14119;DHT22;7138;49.246;9.100;2023-09-18T09:16:39;19.30;99.90
14119;DHT22;7138;49.246;9.100;2023-09-18T09:19:05;19.30;99.90
14119;DHT22;7138;49.246;9.100;2023-09-18T09:21:40;19.20;99.90
14119;DHT22;7138;49.246;9.100;2023-09-18T09:24:09;19.20;99.90
14119;DHT22;7138;49.246;9.100;2023-09-18T09:26:39;19.20;99.90
14119;DHT22;7138;49.246;9.100;2023-09-18T09:29:15;19.20;99.90
14119;DHT22;7138;49.246;9.100;2023-09-18T09:31:44;19.10;99.90
14119;DHT22;7138;49.246;9.100;2023-09-18T09:34:11;19.10;99.90
14119;DHT22;7138;49.246;9.100;2023-09-18T09:36:51;19.00;99.90
14119;DHT22;7138;49.246;9.100;2023-09-18T09:39:19;19.00;99.90
14119;DHT22;7138;49.246;9.100;2023-09-18T09:41:48;19.00;99.90
14119;DHT22;7138;49.246;9.100;2023-09-18T09:44:15;19.00;99.90
14119;DHT22;7138;49.246;9.100;2023-09-18T09:46:46;18.90;99.90
14119;DHT22;7138;49.246;9.100;2023-09-18T09:49:12;19.00;99.90
14119;DHT22;7138;49.246;9.100;2023-09-18T09:51:37;19.00;99.90
14119;DHT22;7138;49.246;9.100;2023-09-18T09:54:07;19.00;99.90
14119;DHT22;7138;49.246;9.100;2023-09-18T09:56:44;19.00;99.90
14119;DHT22;7138;49.246;9.100;2023-09-18T09:59:12;19.10;99.90
14119;DHT22;7138;49.246;9.100;2023-09-18T10:01:40;19.20;99.90
14119;DHT22;7138;49.246;9.100;2023-09-18T10:04:09;19.20;99.90
14119;DHT22;7138;49.246;9.100;2023-09-18T10:06:40;19.20;99.90
14119;DHT22;7138;49.246;9.100;2023-09-18T10:09:08;19.20;99.90
14119;DHT22;7138;49.246;9.100;2023-09-18T10:11:41;19.20;99.90
14119;DHT22;7138;49.246;9.100;2023-09-18T10:14:12;19.30;99.90
14119;DHT22;7138;49.246;9.100;2023-09-18T10:16:46;19.40;99.90
14119;DHT22;7138;49.246;9.100;2023-09-18T10:19:23;19.40;99.90
14119;DHT22;7138;49.246;9.100;2023-09-18T10:21:59;19.40;99.90
14119;DHT22;7138;49.246;9.100;2023-09-18T10:24:33;19.50;99.90
14119;DHT22;7138;49.246;9.100;2023-09-18T10:27:03;19.60;99.90
14119;DHT22;7138;49.246;9.100;2023-09-18T10:29:33;19.70;99.90
14119;DHT22;7138;49.246;9.100;2023-09-18T10:32:03;19.70;99.90
14119;DHT22;7138;49.246;9.100;2023-09-18T10:34:30;19.80;99.90
14119;DHT22;7138;49.246;9.100;2023-09-18T10:37:02;19.80;99.90
14119;DHT22;7138;49.246;9.100;2023-09-18T10:39:35;19.80;99.90
14119;DHT22;7138;49.246;9.100;2023-09-18T10:42:03;19.80;99.90
14119;DHT22;7138;49.246;9.100;2023-09-18T10:44:30;19.70;99.90
14119;DHT22;7138;49.246;9.100;2023-09-18T10:47:01;19.70;99.90
14119;DHT22;7138;49.246;9.100;2023-09-18T10:49:31;19.70;99.90
14119;DHT22;7138;49.246;9.100;2023-09-18T10:51:58;19.80;99.90
14119;DHT22;7138;49.246;9.100;2023-09-18T10:54:28;20.00;99.90
14119;DHT22;7138;49.246;9.100;2023-09-18T10:56:56;20.20;99.90
14119;DHT22;7138;49.246;9.100;2023-09-18T10:59:23;20.20;99.90
14119;DHT22;7138;49.246;9.100;2023-09-18T11:01:49;20.20;99.90
14119;DHT22;7138;49.246;9.100;2023-09-18T11:04:18;20.10;99.90
14119;DHT22;7138;49.246;9.100;2023-09-18T11:07:02;20.10;99.90
14119;DHT22;7138;49.246;9.100;2023-09-18T11:09:30;20.00;99.90
14119;DHT22;7138;49.246;9.100;2023-09-18T11:12:03;19.90;99.90
14119;DHT22;7138;49.246;9.100;2023-09-18T11:14:41;19.90;99.90
14119;DHT22;7138;49.246;9.100;2023-09-18T11:17:32;19.80;99.90
14119;DHT22;7138;49.246;9.100;2023-09-18T11:20:15;19.70;99.90
14119;DHT22;7138;49.246;9.100;2023-09-18T11:22:48;19.80;99.90
14119;DHT22;7138;49.246;9.100;2023-09-18T11:25:34;19.90;99.90
14119;DHT22;7138;49.246;9.100;2023-09-18T11:28:03;20.00;99.90
14119;DHT22;7138;49.246;9.100;2023-09-18T11:30:33;20.00;99.90
14119;DHT22;7138;49.246;9.100;2023-09-18T11:33:02;20.00;99.90
14119;DHT22;7138;49.246;9.100;2023-09-18T11:35:28;20.10;99.90
14119;DHT22;7138;49.246;9.100;2023-09-18T11:38:05;20.10;99.90
14119;DHT22;7138;49.246;9.100;2023-09-18T11:40:34;20.10;99.90
14119;DHT22;7138;49.246;9.100;2023-09-18T11:43:23;20.10;99.90
14119;DHT22;7138;49.246;9.100;2023-09-18T11:45:55;20.10;99.90
14119;DHT22;7138;49.246;9.100;2023-09-18T11:48:23;20.20;99.90
14119;DHT22;7138;49.246;9.100;2023-09-18T11:50:51;20.40;99.90
14119;DHT22;7138;49.246;9.100;2023-09-18T11:53:19;20.50;99.90
14119;DHT22;7138;49.246;9.100;2023-09-18T11:55:46;20.50;99.90
14119;DHT22;7138;49.246;9.100;2023-09-18T11:58:12;20.50;99.90
14119;DHT22;7138;49.246;9.100;2023-09-18T12:00:38;20.50;99.90
14119;DHT22;7138;49.246;9.100;2023-09-18T12:03:15;20.60;99.90
14119;DHT22;7138;49.246;9.100;2023-09-18T12:05:44;20.50;99.90
14119;DHT22;7138;49.246;9.100;2023-09-18T12:08:11;20.60;99.90
14119;DHT22;7138;49.246;9.100;2023-09-18T12:10:38;20.70;99.90
14119;DHT22;7138;49.246;9.100;2023-09-18T12:13:06;20.70;99.90
14119;DHT22;7138;49.246;9.100;2023-09-18T12:15:34;20.70;99.90
14119;DHT22;7138;49.246;9.100;2023-09-18T12:18:05;20.70;99.90
14119;DHT22;7138;49.246;9.100;2023-09-18T12:20:32;20.60;99.90
14119;DHT22;7138;49.246;9.100;2023-09-18T12:22:59;20.50;99.90
14119;DHT22;7138;49.246;9.100;2023-09-18T12:25:26;20.50;99.90
14119;DHT22;7138;49.246;9.100;2023-09-18T12:27:53;20.50;99.90
14119;DHT22;7138;49.246;9.100;2023-09-18T12:30:20;20.50;99.90
14119;DHT22;7138;49.246;9.100;2023-09-18T12:32:48;20.50;99.90
14119;DHT22;7138;49.246;9.100;2023-09-18T12:35:15;20.60;99.90
14119;DHT22;7138;49.246;9.100;2023-09-18T12:37:41;20.60;99.90
14119;DHT22;7138;49.246;9.100;2023-09-18T12:40:10;20.70;99.90
14119;DHT22;7138;49.246;9.100;2023-09-18T12:42:47;20.80;99.90
14119;DHT22;7138;49.246;9.100;2023-09-18T12:45:15;21.10;99.90
14119;DHT22;7138;49.246;9.100;2023-09-18T12:47:42;21.20;99.90
14119;DHT22;7138;49.246;9.100;2023-09-18T12:50:12;21.30;99.90
14119;DHT22;7138;49.246;9.100;2023-09-18T12:52:38;21.30;99.90
14119;DHT22;7138;49.246;9.100;2023-09-18T12:55:04;21.30;99.90
14119;DHT22;7138;49.246;9.100;2023-09-18T12:57:32;21.20;99.90
14119;DHT22;7138;49.246;9.100;2023-09-18T12:59:58;21.10;99.90
14119;DHT22;7138;49.246;9.100;2023-09-18T13:02:26;21.00;99.90
14119;DHT22;7138;49.246;9.100;2023-09-18T13:04:52;21.10;99.90
14119;DHT22;7138;49.246;9.100;2023-09-18T13:07:20;21.10;99.90
14119;DHT22;7138;49.246;9.100;2023-09-18T13:09:58;21.30;99.90
14119;DHT22;7138;49.246;9.100;2023-09-18T13:12:40;21.70;99.90
14119;DHT22;7138;49.246;9.100;2023-09-18T13:15:07;22.10;99.90
14119;DHT22;7138;49.246;9.100;2023-09-18T13:17:43;22.40;99.90
14119;DHT22;7138;49.246;9.100;2023-09-18T13:20:12;22.40;99.90
14119;DHT22;7138;49.246;9.100;2023-09-18T13:22:40;22.30;99.90
14119;DHT22;7138;49.246;9.100;2023-09-18T13:25:07;22.20;99.90
14119;DHT22;7138;49.246;9.100;2023-09-18T13:27:34;22.10;99.90
14119;DHT22;7138;49.246;9.100;2023-09-18T13:30:00;22.00;99.90
14119;DHT22;7138;49.246;9.100;2023-09-18T13:32:33;22.00;99.90
14119;DHT22;7138;49.246;9.100;2023-09-18T13:35:02;21.90;99.90
14119;DHT22;7138;49.246;9.100;2023-09-18T13:37:31;21.90;99.90
14119;DHT22;7138;49.246;9.100;2023-09-18T13:39:57;21.90;99.90
14119;DHT22;7138;49.246;9.100;2023-09-18T13:42:23;22.00;99.90
14119;DHT22;7138;49.246;9.100;2023-09-18T13:44:49;22.00;99.90
14119;DHT22;7138;49.246;9.100;2023-09-18T13:47:15;22.00;99.90
14119;DHT22;7138;49.246;9.100;2023-09-18T13:49:41;22.20;99.90
14119;DHT22;7138;49.246;9.100;2023-09-18T13:52:08;22.30;99.90
14119;DHT22;7138;49.246;9.100;2023-09-18T13:54:34;22.20;99.90
14119;DHT22;7138;49.246;9.100;2023-09-18T13:57:00;22.10;99.90
14119;DHT22;7138;49.246;9.100;2023-09-18T13:59:25;21.90;99.90
14119;DHT22;7138;49.246;9.100;2023-09-18T14:01:51;21.80;99.90
14119;DHT22;7138;49.246;9.100;2023-09-18T14:04:17;21.90;99.90
14119;DHT22;7138;49.246;9.100;2023-09-18T14:06:43;21.80;99.90
14119;DHT22;7138;49.246;9.100;2023-09-18T14:09:11;22.00;99.90
14119;DHT22;7138;49.246;9.100;2023-09-18T14:11:37;21.90;99.90
14119;DHT22;7138;49.246;9.100;2023-09-18T14:14:03;21.90;99.90
14119;DHT22;7138;49.246;9.100;2023-09-18T14:16:29;21.80;99.90
14119;DHT22;7138;49.246;9.100;2023-09-18T14:18:58;21.80;99.90
14119;DHT22;7138;49.246;9.100;2023-09-18T14:21:24;21.70;99.90
14119;DHT22;7138;49.246;9.100;2023-09-18T14:23:53;21.60;99.90
14119;DHT22;7138;49.246;9.100;2023-09-18T14:26:20;21.60;99.90
14119;DHT22;7138;49.246;9.100;2023-09-18T14:28:46;21.50;99.90
14119;DHT22;7138;49.246;9.100;2023-09-18T14:31:12;21.40;99.90
14119;DHT22;7138;49.246;9.100;2023-09-18T14:33:38;21.50;99.90
14119;DHT22;7138;49.246;9.100;2023-09-18T14:36:04;21.60;99.90
14119;DHT22;7138;49.246;9.100;2023-09-18T14:38:30;21.60;99.90
14119;DHT22;7138;49.246;9.100;2023-09-18T14:40:56;21.60;99.90
14119;DHT22;7138;49.246;9.100;2023-09-18T14:43:29;21.70;99.90
14119;DHT22;7138;49.246;9.100;2023-09-18T14:45:55;21.80;99.90
14119;DHT22;7138;49.246;9.100;2023-09-18T14:48:21;21.90;99.90
14119;DHT22;7138;49.246;9.100;2023-09-18T14:50:53;22.10;99.90
14119;DHT22;7138;49.246;9.100;2023-09-18T14:53:19;22.40;99.90
14119;DHT22;7138;49.246;9.100;2023-09-18T14:55:45;22.50;99.90
14119;DHT22;7138;49.246;9.100;2023-09-18T14:58:11;22.50;99.90
14119;DHT22;7138;49.246;9.100;2023-09-18T15:00:38;22.40;99.90
14119;DHT22;7138;49.246;9.100;2023-09-18T15:03:04;22.20;99.90
14119;DHT22;7138;49.246;9.100;2023-09-18T15:05:30;22.10;99.90
14119;DHT22;7138;49.246;9.100;2023-09-18T15:07:59;22.10;99.90
14119;DHT22;7138;49.246;9.100;2023-09-18T15:10:25;22.20;99.90
14119;DHT22;7138;49.246;9.100;2023-09-18T15:12:53;22.30;99.90
14119;DHT22;7138;49.246;9.100;2023-09-18T15:15:19;22.40;99.90
14119;DHT22;7138;49.246;9.100;2023-09-18T15:17:47;22.50;99.90
14119;DHT22;7138;49.246;9.100;2023-09-18T15:20:14;22.50;99.90
14119;DHT22;7138;49.246;9.100;2023-09-18T15:22:42;22.60;99.90
14119;DHT22;7138;49.246;9.100;2023-09-18T15:25:08;22.60;99.90
14119;DHT22;7138;49.246;9.100;2023-09-18T15:27:34;22.60;99.90
14119;DHT22;7138;49.246;9.100;2023-09-18T15:30:00;22.70;99.90
14119;DHT22;7138;49.246;9.100;2023-09-18T15:32:26;22.60;99.90
14119;DHT22;7138;49.246;9.100;2023-09-18T15:34:54;22.60;99.90
14119;DHT22;7138;49.246;9.100;2023-09-18T15:37:20;22.50;99.90
14119;DHT22;7138;49.246;9.100;2023-09-18T15:39:47;22.40;99.90
14119;DHT22;7138;49.246;9.100;2023-09-18T15:42:13;22.30;99.90
14119;DHT22;7138;49.246;9.100;2023-09-18T15:44:40;22.10;99.90
14119;DHT22;7138;49.246;9.100;2023-09-18T15:47:06;22.20;99.90